createdAt,value
2019-03-10T13:04:19.113Z,48.66
2019-03-10T13:05:17.965Z,47.83
2019-03-10T13:06:17.669Z,47.53
2019-03-10T13:07:17.616Z,47.71
2019-03-10T13:08:17.531Z,47.81
2019-03-10T13:09:17.488Z,47.19
2019-03-10T13:10:17.434Z,48.08
2019-03-10T13:11:17.375Z,47.06
2019-03-10T13:12:17.338Z,46.46
2019-03-10T13:13:17.253Z,46.54
2019-03-10T13:15:52.321Z,33.99
2019-03-10T13:18:03.377Z,38.47
2019-03-10T13:19:03.301Z,39.57
2019-03-10T13:20:03.183Z,40.03
2019-03-10T13:21:03.228Z,42.90
2019-03-10T13:22:03.217Z,43.65
2019-03-10T13:23:03.174Z,47.36
2019-03-10T13:24:03.142Z,47.53
2019-03-10T13:25:03.132Z,49.84
2019-03-10T13:26:03.134Z,50.19
2019-03-10T13:27:03.152Z,53.37
2019-03-10T13:28:03.126Z,53.83
2019-03-10T13:29:03.092Z,53.88
2019-03-10T13:30:03.092Z,55.56
2019-03-10T13:31:03.063Z,57.86
2019-03-10T13:32:03.083Z,59.83
2019-03-10T13:33:03.039Z,58.73
2019-03-10T13:34:03.042Z,59.89
2019-03-10T13:35:03.015Z,61.55
2019-03-10T13:36:03.021Z,63.73
2019-03-10T13:37:03.013Z,63.76
2019-03-10T13:38:02.984Z,64.92
2019-03-10T13:39:03.153Z,63.72
2019-03-10T13:40:02.966Z,66.42
2019-03-10T13:41:02.963Z,65.63
2019-03-10T13:42:02.943Z,66.31
2019-03-10T13:43:02.942Z,70.42
2019-03-10T13:44:02.946Z,70.42
2019-03-10T13:45:02.908Z,71.37
2019-03-10T13:46:02.897Z,73.57
2019-03-10T13:47:02.890Z,76.86
2019-03-10T13:48:02.931Z,76.66
2019-03-10T13:49:02.886Z,76.18
2019-03-10T13:50:02.901Z,74.22
2019-03-10T13:51:02.850Z,78.34
2019-03-10T13:52:02.858Z,81.53
2019-03-10T13:53:02.847Z,80.23
2019-03-10T13:54:02.843Z,80.75
2019-03-10T13:55:02.809Z,80.13
2019-03-10T13:56:02.812Z,78.31
2019-03-10T13:57:02.796Z,77.48
2019-03-10T13:58:02.768Z,80.06
2019-03-10T13:59:02.770Z,79.96
2019-03-10T14:00:02.778Z,77.59
2019-03-10T14:01:02.771Z,76.90
2019-03-10T14:02:02.738Z,79.69
2019-03-10T14:03:02.727Z,79.90
2019-03-10T14:04:02.717Z,81.99
2019-03-10T14:05:02.695Z,81.44
2019-03-10T14:06:02.691Z,82.37
2019-03-10T14:07:02.671Z,81.44
2019-03-10T14:08:02.675Z,81.44
2019-03-10T14:09:02.779Z,80.41
2019-03-10T14:10:02.647Z,79.27
2019-03-10T14:11:02.639Z,78.76
2019-03-10T14:12:02.683Z,81.61
2019-03-10T14:13:02.609Z,82.12
2019-03-10T14:14:02.620Z,81.81
2019-03-10T14:15:02.639Z,82.33
2019-03-10T14:16:02.609Z,78.17
2019-03-10T14:17:02.590Z,77.93
2019-03-10T14:18:02.577Z,80.19
2019-03-10T14:19:02.573Z,78.96
2019-03-10T14:20:02.532Z,81.53
2019-03-10T14:21:02.519Z,79.06
2019-03-10T14:22:02.525Z,77.93
2019-03-10T14:23:02.571Z,75.15
2019-03-10T14:24:02.488Z,75.18
2019-03-10T14:25:02.591Z,77.25
2019-03-10T14:26:02.707Z,77.66
2019-03-10T14:27:02.459Z,77.97
2019-03-10T14:28:02.445Z,77.25
2019-03-10T14:29:02.433Z,76.21
2019-03-10T14:30:02.443Z,79.41
2019-03-10T14:31:02.419Z,80.33
2019-03-10T14:32:02.412Z,80.75
2019-03-10T14:33:02.451Z,80.51
2019-03-10T14:34:02.392Z,81.74
2019-03-10T14:35:02.415Z,78.03
2019-03-10T14:36:02.362Z,78.20
2019-03-10T14:37:02.397Z,79.95
2019-03-10T14:38:02.369Z,80.33
2019-03-10T14:39:04.534Z,81.76
2019-03-10T14:40:02.607Z,83.20
2019-03-10T14:41:02.315Z,76.79
2019-03-10T14:42:02.290Z,75.90
2019-03-10T14:43:02.453Z,73.61
2019-03-10T14:44:02.614Z,76.69
2019-03-10T14:45:02.303Z,76.18
2019-03-10T14:46:02.245Z,72.89
2019-03-10T14:47:02.237Z,78.33
2019-03-10T14:48:02.391Z,80.60
2019-03-10T14:49:02.298Z,79.84
2019-03-10T14:50:02.215Z,79.12
2019-03-10T14:51:02.251Z,79.33
2019-03-10T14:52:02.192Z,78.40
2019-03-10T14:53:04.603Z,78.09
2019-03-10T14:54:02.161Z,78.85
2019-03-10T14:55:02.152Z,80.08
2019-03-10T14:56:02.581Z,80.29
2019-03-10T14:57:02.824Z,80.19
2019-03-10T14:58:03.050Z,81.21
2019-03-10T14:59:02.156Z,80.43
2019-03-10T15:00:02.161Z,80.12
2019-03-10T15:01:02.111Z,76.86
2019-03-10T15:02:02.077Z,74.60
2019-03-10T15:03:02.518Z,77.07
2019-03-10T15:04:02.077Z,77.79
2019-03-10T15:05:02.038Z,78.44
2019-03-10T15:06:02.038Z,78.44
2019-03-10T15:07:03.154Z,79.16
2019-03-10T15:08:02.033Z,79.58
2019-03-10T15:09:02.058Z,80.09
2019-03-10T15:10:02.032Z,80.54
2019-03-10T15:11:01.972Z,77.11
2019-03-10T15:12:01.993Z,79.10
2019-03-10T15:13:01.965Z,80.68
2019-03-10T15:14:01.950Z,80.47
2019-03-10T15:15:01.964Z,80.37
2019-03-10T15:16:01.932Z,80.89
2019-03-10T15:17:02.227Z,80.89
2019-03-10T15:18:03.022Z,80.37
2019-03-10T15:19:01.888Z,81.54
2019-03-10T15:20:01.919Z,81.96
2019-03-10T15:21:01.877Z,82.89
2019-03-10T15:22:10.526Z,81.96
2019-03-10T15:23:01.866Z,82.71
2019-03-10T15:24:01.840Z,82.71
2019-03-10T15:25:01.896Z,82.30
2019-03-10T15:26:01.819Z,83.13
2019-03-10T15:27:01.817Z,84.27
2019-03-10T15:28:01.884Z,84.27
2019-03-10T15:29:01.778Z,83.95
2019-03-10T15:30:01.822Z,84.81
2019-03-10T15:31:01.768Z,84.06
2019-03-10T15:32:01.754Z,84.92
2019-03-10T15:33:01.740Z,84.47
2019-03-10T15:34:01.772Z,84.06
2019-03-10T15:35:01.784Z,84.78
2019-03-10T15:36:01.724Z,84.51
2019-03-10T15:37:01.690Z,84.41
2019-03-10T15:38:01.691Z,84.92
2019-03-10T15:39:01.701Z,85.44
2019-03-10T15:40:01.715Z,85.23
2019-03-10T15:41:01.647Z,85.06
2019-03-10T15:42:01.699Z,84.81
2019-03-10T15:43:01.627Z,85.13
2019-03-10T15:44:01.609Z,85.47
2019-03-10T15:45:01.645Z,85.37
2019-03-10T15:46:01.602Z,85.75
2019-03-10T15:47:01.624Z,85.37
2019-03-10T15:48:01.571Z,85.23
2019-03-10T15:49:01.667Z,85.27
2019-03-10T15:50:01.591Z,85.58
2019-03-10T15:51:01.575Z,85.89
2019-03-10T15:52:01.639Z,86.71
2019-03-10T15:53:01.523Z,85.68
2019-03-10T15:54:01.505Z,86.10
2019-03-10T15:55:01.497Z,86.20
2019-03-10T15:56:01.483Z,86.30
2019-03-10T15:57:01.511Z,85.99
2019-03-10T15:58:03.916Z,86.61
2019-03-10T15:59:01.453Z,87.13
2019-03-10T16:00:01.446Z,86.92
2019-03-10T16:01:03.839Z,88.06
2019-03-10T16:02:01.412Z,88.16
2019-03-10T16:03:01.428Z,87.74
2019-03-10T16:04:01.436Z,88.26
2019-03-10T16:05:01.409Z,88.06
2019-03-10T16:06:01.435Z,88.78
2019-03-10T16:07:01.361Z,88.78
2019-03-10T16:08:01.379Z,88.78
2019-03-10T16:09:01.331Z,89.40
2019-03-10T16:10:01.538Z,89.29
2019-03-10T16:11:01.355Z,88.98
2019-03-10T16:12:01.327Z,89.54
2019-03-10T16:13:01.317Z,89.44
2019-03-10T16:14:01.288Z,89.65
2019-03-10T16:15:01.288Z,89.65
2019-03-10T16:16:01.332Z,89.86
2019-03-10T16:17:01.291Z,89.65
2019-03-10T16:18:01.306Z,89.95
2019-03-10T16:19:01.319Z,90.58
2019-03-10T16:20:01.233Z,90.68
2019-03-10T16:21:01.264Z,90.95
2019-03-10T16:22:01.202Z,91.09
2019-03-10T16:23:01.200Z,90.78
2019-03-10T16:24:01.201Z,91.30
2019-03-10T16:25:01.173Z,90.58
2019-03-10T16:26:01.227Z,91.30
2019-03-10T16:27:01.164Z,91.82
2019-03-10T16:28:01.182Z,91.71
2019-03-10T16:29:01.150Z,91.20
2019-03-10T16:30:01.163Z,91.82
2019-03-10T16:31:01.169Z,91.61
2019-03-10T16:32:01.126Z,92.13
2019-03-10T16:33:01.112Z,91.61
2019-03-10T16:34:01.073Z,92.02
2019-03-10T16:35:01.140Z,92.85
2019-03-10T16:36:01.063Z,92.23
2019-03-10T16:37:01.071Z,92.07
2019-03-10T16:38:01.037Z,92.13
2019-03-10T16:39:01.028Z,92.17
2019-03-10T16:40:01.091Z,92.23
2019-03-10T16:41:00.999Z,91.92
2019-03-10T16:42:00.994Z,92.17
2019-03-10T16:43:01.024Z,92.33
2019-03-10T16:44:00.963Z,92.38
2019-03-10T16:45:00.958Z,92.27
2019-03-10T16:46:00.950Z,92.07
2019-03-10T16:47:00.940Z,92.17
2019-03-10T16:48:01.016Z,92.48
2019-03-10T16:49:00.910Z,92.27
2019-03-10T16:50:00.906Z,92.89
2019-03-10T16:51:00.934Z,92.89
2019-03-10T16:52:00.878Z,92.68
2019-03-10T16:53:00.870Z,93.72
2019-03-10T16:54:00.875Z,93.20
2019-03-10T16:55:00.864Z,93.41
2019-03-10T16:56:03.154Z,93.62
2019-03-10T16:57:00.839Z,93.51
2019-03-10T16:58:00.821Z,92.38
2019-03-10T16:59:00.820Z,91.86
2019-03-10T17:00:00.886Z,91.24
2019-03-10T17:01:00.789Z,90.66
2019-03-10T17:02:01.140Z,90.66
2019-03-10T17:03:00.790Z,90.56
2019-03-10T17:04:00.755Z,90.66
2019-03-10T17:05:00.829Z,90.45
2019-03-10T17:06:00.817Z,90.56
2019-03-10T17:07:00.750Z,90.25
2019-03-10T17:08:00.775Z,91.07
2019-03-10T17:09:00.701Z,90.97
2019-03-10T17:10:00.701Z,90.56
2019-03-10T17:11:00.706Z,90.97
2019-03-10T17:12:00.665Z,91.28
2019-03-10T17:13:00.695Z,92.11
2019-03-10T17:14:00.657Z,91.84
2019-03-10T17:15:00.638Z,91.42
2019-03-10T17:16:00.629Z,91.69
2019-03-10T17:17:00.633Z,91.59
2019-03-10T17:18:00.684Z,91.63
2019-03-10T17:19:00.650Z,91.42
2019-03-10T17:20:00.579Z,91.42
2019-03-10T17:21:00.597Z,92.15
2019-03-10T17:22:00.573Z,92.36
2019-03-10T17:23:00.645Z,92.57
2019-03-10T17:24:00.548Z,92.57
2019-03-10T17:25:00.546Z,92.50
2019-03-10T17:26:00.513Z,91.94
2019-03-10T17:27:00.503Z,92.61
2019-03-10T17:28:00.573Z,92.81
2019-03-10T17:29:00.524Z,92.09
2019-03-10T17:30:00.523Z,92.19
2019-03-10T17:31:00.469Z,92.19
2019-03-10T17:32:00.470Z,91.99
2019-03-10T17:33:00.501Z,92.19
2019-03-10T17:34:00.471Z,92.19
2019-03-10T17:35:00.499Z,92.50
2019-03-10T17:36:00.418Z,91.88
2019-03-10T17:37:00.405Z,92.09
2019-03-10T17:38:00.434Z,92.44
2019-03-10T17:39:00.505Z,92.40
2019-03-10T17:40:00.397Z,92.09
2019-03-10T17:41:00.364Z,92.09
2019-03-10T17:42:00.349Z,92.24
2019-03-10T17:43:00.350Z,91.93
2019-03-10T17:44:00.381Z,91.51
2019-03-10T17:45:00.368Z,91.30
2019-03-10T17:46:00.324Z,91.51
2019-03-10T17:47:00.306Z,92.13
2019-03-10T17:48:00.306Z,92.03
2019-03-10T17:49:00.269Z,91.72
2019-03-10T17:50:00.467Z,91.72
2019-03-10T17:51:00.262Z,91.93
2019-03-10T17:52:00.270Z,92.44
2019-03-10T17:53:00.258Z,91.72
2019-03-10T17:54:00.278Z,91.82
2019-03-10T17:55:00.360Z,92.24
2019-03-10T17:56:00.227Z,91.97
2019-03-10T17:57:00.703Z,92.13
2019-03-10T17:58:00.176Z,93.16
2019-03-10T17:59:00.219Z,93.37
2019-03-10T18:00:00.313Z,93.52
2019-03-10T18:01:00.151Z,93.79
2019-03-10T18:02:08.493Z,92.85
2019-03-10T18:03:01.128Z,92.90
2019-03-10T18:04:00.310Z,92.28
2019-03-10T18:05:00.346Z,92.18
2019-03-10T18:06:00.137Z,92.18
2019-03-10T18:07:00.124Z,92.18
2019-03-10T18:08:00.178Z,92.18
2019-03-10T18:09:00.147Z,92.49
2019-03-10T18:10:00.353Z,93.10
2019-03-10T18:11:00.037Z,92.69
2019-03-10T18:12:00.021Z,92.07
2019-03-10T18:13:00.077Z,92.49
2019-03-10T18:14:00.026Z,92.22
2019-03-10T18:15:08.234Z,92.32
2019-03-10T18:16:01.006Z,92.38
2019-03-10T18:16:59.972Z,92.01
2019-03-10T18:18:00.126Z,92.11
2019-03-10T18:18:59.964Z,92.74
2019-03-10T18:19:59.964Z,93.04
2019-03-10T18:20:59.935Z,93.15
2019-03-10T18:21:59.917Z,92.74
2019-03-10T18:22:59.914Z,91.60
2019-03-10T18:23:59.911Z,91.80
2019-03-10T18:24:59.923Z,91.43
2019-03-10T18:25:59.889Z,90.81
2019-03-10T18:26:59.863Z,91.47
2019-03-10T18:27:59.858Z,90.95
2019-03-10T18:28:59.875Z,91.68
2019-03-10T18:29:59.879Z,92.20
2019-03-10T18:30:59.882Z,91.06
2019-03-10T18:32:01.995Z,92.20
2019-03-10T18:32:59.845Z,90.95
2019-03-10T18:33:59.805Z,92.10
2019-03-10T18:34:59.789Z,92.03
2019-03-10T18:35:59.798Z,91.72
2019-03-10T18:36:59.757Z,91.93
2019-03-10T18:37:59.754Z,92.76
2019-03-10T18:38:59.733Z,93.01
2019-03-10T18:39:59.755Z,92.38
2019-03-10T18:40:59.713Z,92.76
2019-03-10T18:41:59.767Z,92.49
2019-03-10T18:42:59.695Z,93.53
2019-03-10T18:43:59.700Z,92.28
2019-03-10T18:44:59.666Z,92.28
2019-03-10T18:45:59.719Z,92.69
2019-03-10T18:46:59.685Z,92.59
2019-03-10T18:47:59.637Z,92.63
2019-03-10T18:48:59.638Z,92.63
2019-03-10T18:49:59.622Z,93.16
2019-03-10T18:50:59.696Z,92.63
2019-03-10T18:51:59.618Z,93.72
2019-03-10T18:52:59.616Z,93.78
2019-03-10T18:53:59.573Z,93.78
2019-03-10T18:54:59.586Z,93.16
2019-03-10T18:55:59.553Z,93.37
2019-03-10T18:56:59.542Z,93.93
2019-03-10T18:57:59.575Z,94.34
2019-03-10T18:58:59.522Z,94.65
2019-03-10T18:59:59.510Z,94.24
2019-03-10T19:00:59.526Z,94.65
2019-03-10T19:01:59.484Z,93.62
2019-03-10T19:02:59.525Z,93.72
2019-03-10T19:03:59.522Z,93.93
2019-03-10T19:04:59.461Z,94.24
2019-03-10T19:05:59.445Z,94.45
2019-03-10T19:06:59.443Z,93.87
2019-03-10T19:07:59.434Z,94.18
2019-03-10T19:08:59.525Z,94.59
2019-03-10T19:09:59.429Z,94.28
2019-03-10T19:10:59.396Z,94.38
2019-03-10T19:11:59.389Z,94.18
2019-03-10T19:12:59.377Z,94.38
2019-03-10T19:13:59.397Z,94.43
2019-03-10T19:14:59.358Z,94.32
2019-03-10T19:15:59.392Z,94.74
2019-03-10T19:16:59.337Z,94.22
2019-03-10T19:17:59.414Z,94.32
2019-03-10T19:18:59.355Z,94.64
2019-03-10T19:19:59.344Z,93.70
2019-03-10T19:20:59.292Z,94.53
2019-03-10T19:21:59.273Z,94.26
2019-03-10T19:22:59.269Z,93.80
2019-03-10T19:23:59.330Z,94.06
2019-03-10T19:24:59.242Z,94.57
2019-03-10T19:25:59.301Z,94.37
2019-03-10T19:26:59.251Z,94.62
2019-03-10T19:27:59.210Z,94.51
2019-03-10T19:28:59.267Z,94.51
2019-03-10T19:29:59.221Z,93.68
2019-03-10T19:30:59.225Z,94.31
2019-03-10T19:31:59.168Z,93.73
2019-03-10T19:32:59.186Z,94.76
2019-03-10T19:33:59.187Z,94.56
2019-03-10T19:34:59.150Z,94.45
2019-03-10T19:35:59.151Z,94.66
2019-03-10T19:36:59.113Z,94.60
2019-03-10T19:37:59.148Z,94.45
2019-03-10T19:38:59.143Z,94.70
2019-03-10T19:39:59.103Z,94.45
2019-03-10T19:40:59.088Z,94.60
2019-03-10T19:41:59.074Z,94.49
2019-03-10T19:42:59.100Z,94.70
2019-03-10T19:43:59.107Z,94.85
2019-03-10T19:44:59.026Z,95.37
2019-03-10T19:45:59.074Z,95.17
2019-03-10T19:46:59.023Z,95.37
2019-03-10T19:48:06.540Z,94.96
2019-03-10T19:48:59.035Z,95.79
2019-03-10T19:49:58.973Z,96.25
2019-03-10T19:50:59.001Z,95.62
2019-03-10T19:51:58.996Z,95.83
2019-03-10T19:52:58.957Z,95.73
2019-03-10T19:53:59.013Z,95.62
2019-03-10T19:54:58.961Z,95.94
2019-03-10T19:55:58.987Z,95.73
2019-03-10T19:56:58.919Z,95.83
2019-03-10T19:57:58.909Z,96.15
2019-03-10T19:58:58.890Z,96.04
2019-03-10T19:59:58.914Z,96.30
2019-03-10T20:00:58.883Z,96.09
2019-03-10T20:01:58.979Z,96.30
2019-03-10T20:02:58.884Z,96.50
2019-03-10T20:03:58.831Z,97.13
2019-03-10T20:04:58.813Z,97.28
2019-03-10T20:05:58.809Z,96.82
2019-03-10T20:06:58.814Z,96.82
2019-03-10T20:07:58.825Z,97.44
2019-03-10T20:09:01.234Z,97.24
2019-03-10T20:09:58.769Z,97.38
2019-03-10T20:10:58.775Z,97.13
2019-03-10T20:11:58.779Z,97.07
2019-03-10T20:12:58.789Z,97.38
2019-03-10T20:13:58.721Z,98.01
2019-03-10T20:14:58.722Z,97.91
2019-03-10T20:15:58.693Z,97.70
2019-03-10T20:16:58.713Z,97.49
2019-03-10T20:17:58.714Z,97.80
2019-03-10T20:18:58.749Z,98.11
2019-03-10T20:19:58.683Z,98.43
2019-03-10T20:20:58.646Z,99.16
2019-03-10T20:21:58.643Z,99.05
2019-03-10T20:23:01.045Z,99.16
2019-03-10T20:23:58.612Z,98.89
2019-03-10T20:24:58.601Z,98.74
2019-03-10T20:25:58.626Z,98.85
2019-03-10T20:26:58.617Z,98.53
2019-03-10T20:27:58.587Z,99.31
2019-03-10T20:28:58.586Z,99.05
2019-03-10T20:29:58.554Z,99.47
2019-03-10T20:30:58.592Z,98.95
2019-03-10T20:31:58.524Z,99.47
2019-03-10T20:32:58.516Z,99.37
2019-03-10T20:33:58.512Z,99.57
2019-03-10T20:34:58.489Z,99.10
2019-03-10T20:35:58.518Z,99.37
2019-03-10T20:36:58.475Z,99.37
2019-03-10T20:37:58.470Z,99.57
2019-03-10T20:38:58.465Z,99.57
2019-03-10T20:39:58.435Z,99.57
2019-03-10T20:40:58.473Z,99.79
2019-03-10T20:42:05.276Z,99.93
2019-03-10T20:42:59.419Z,99.68
2019-03-10T20:43:58.394Z,99.37
2019-03-10T20:44:58.416Z,99.89
2019-03-10T20:45:58.396Z,99.99
2019-03-10T20:46:58.382Z,99.99
2019-03-10T20:47:58.533Z,99.99
2019-03-10T20:48:58.361Z,99.99
2019-03-10T20:49:58.434Z,99.93
2019-03-10T20:50:58.385Z,99.93
2019-03-10T20:51:58.373Z,99.99
2019-03-10T20:52:58.312Z,99.99
2019-03-10T20:53:58.314Z,99.99
2019-03-10T20:54:58.299Z,99.99
2019-03-10T20:55:58.296Z,99.99
2019-03-10T20:56:58.268Z,99.99
2019-03-10T20:57:58.248Z,99.99
2019-03-10T20:58:58.260Z,99.99
2019-03-10T21:00:00.863Z,99.99
2019-03-10T21:00:58.261Z,99.99
2019-03-10T21:01:58.211Z,99.99
2019-03-10T21:02:58.190Z,99.99
2019-03-10T21:03:58.184Z,99.99
2019-03-10T21:04:58.249Z,99.99
2019-03-10T21:05:58.544Z,99.99
2019-03-10T21:06:58.184Z,99.99
2019-03-10T21:07:58.288Z,99.99
2019-03-10T21:08:58.278Z,99.99
2019-03-10T21:09:58.150Z,99.99
2019-03-10T21:10:58.147Z,99.99
2019-03-10T21:11:58.147Z,99.99
2019-03-10T21:12:58.115Z,99.99
2019-03-10T21:13:58.120Z,99.99
2019-03-10T21:14:58.071Z,99.99
2019-03-10T21:15:58.096Z,99.99
2019-03-10T21:16:58.040Z,99.99
2019-03-10T21:17:58.032Z,99.99
2019-03-10T21:18:58.087Z,99.99
2019-03-10T21:19:58.456Z,99.99
2019-03-10T21:20:58.015Z,99.99
2019-03-10T21:21:57.998Z,99.99
2019-03-10T21:22:58.035Z,99.99
2019-03-10T21:23:57.982Z,99.99
2019-03-10T21:24:57.961Z,99.99
2019-03-10T21:25:57.946Z,99.99
2019-03-10T21:26:57.943Z,99.99
2019-03-10T21:27:58.088Z,99.99
2019-03-10T21:28:58.020Z,99.99
2019-03-10T21:29:57.901Z,99.99
2019-03-10T21:30:57.949Z,99.99
2019-03-10T21:31:57.887Z,99.99
2019-03-10T21:32:57.878Z,99.99
2019-03-10T21:33:57.855Z,99.99
2019-03-10T21:34:57.877Z,99.99
2019-03-10T21:35:57.859Z,99.99
2019-03-10T21:36:57.883Z,99.99
2019-03-10T21:37:57.833Z,99.99
2019-03-10T21:38:58.514Z,99.99
2019-03-10T21:39:58.065Z,99.99
2019-03-10T21:40:57.783Z,99.99
2019-03-10T21:41:57.775Z,99.99
2019-03-10T21:42:57.839Z,99.99
2019-03-10T21:43:57.863Z,99.99
2019-03-10T21:44:57.807Z,99.99
2019-03-10T21:45:57.728Z,99.99
2019-03-10T21:46:57.743Z,99.99
2019-03-10T21:47:57.791Z,99.99
2019-03-10T21:48:57.728Z,99.99
2019-03-10T21:49:57.690Z,99.99
2019-03-10T21:50:57.686Z,99.99
2019-03-10T21:51:57.677Z,99.99
2019-03-10T21:52:57.702Z,99.99
2019-03-10T21:53:57.656Z,99.99
2019-03-10T21:54:57.661Z,99.99
2019-03-10T21:55:57.651Z,99.99
2019-03-10T21:56:57.610Z,99.99
2019-03-10T21:57:57.657Z,99.99
2019-03-10T21:58:57.615Z,99.99
2019-03-10T21:59:57.610Z,99.99
2019-03-10T22:00:57.578Z,99.99
2019-03-10T22:01:57.584Z,99.99
2019-03-10T22:02:57.594Z,99.99
2019-03-10T22:03:57.534Z,99.99
2019-03-10T22:04:57.526Z,99.99
2019-03-10T22:05:57.526Z,99.99
2019-03-10T22:06:57.572Z,99.99
2019-03-10T22:07:57.526Z,99.99
2019-03-10T22:09:06.555Z,99.99
2019-03-10T22:09:57.474Z,99.99
2019-03-10T22:10:57.520Z,99.99
2019-03-10T22:11:57.455Z,99.99
2019-03-10T22:12:57.478Z,99.99
2019-03-10T22:13:57.500Z,99.99
2019-03-10T22:14:57.478Z,99.99
2019-03-10T22:15:57.421Z,99.99
2019-03-10T22:16:57.404Z,99.99
2019-03-10T22:17:57.403Z,99.99
2019-03-10T22:18:57.432Z,99.99
2019-03-10T22:19:57.416Z,99.99
2019-03-10T22:20:57.359Z,99.99
2019-03-10T22:21:57.385Z,99.99
2019-03-10T22:22:57.370Z,99.99
2019-03-10T22:23:59.469Z,99.99
2019-03-10T22:24:57.354Z,99.99
2019-03-10T22:25:57.300Z,99.99
2019-03-10T22:26:57.316Z,99.99
2019-03-10T22:27:57.279Z,99.99
2019-03-10T22:28:57.289Z,99.99
2019-03-10T22:29:57.932Z,99.99
2019-03-10T22:30:57.249Z,99.99
2019-03-10T22:31:57.240Z,99.99
2019-03-10T22:32:57.271Z,99.99
2019-03-10T22:33:57.258Z,99.99
2019-03-10T22:34:57.281Z,99.99
2019-03-10T22:35:57.235Z,99.99
2019-03-10T22:36:57.196Z,99.99
2019-03-10T22:37:57.186Z,99.99
2019-03-10T22:38:57.199Z,99.99
2019-03-10T22:39:57.184Z,99.99
2019-03-10T22:40:57.153Z,99.99
2019-03-10T22:41:57.141Z,99.99
2019-03-10T22:42:57.151Z,99.99
2019-03-10T22:43:57.113Z,99.99
2019-03-10T22:44:57.148Z,99.99
2019-03-10T22:45:57.141Z,99.99
2019-03-10T22:46:57.110Z,99.99
2019-03-10T22:47:57.108Z,99.99
2019-03-10T22:48:57.069Z,99.99
2019-03-10T22:49:57.064Z,99.99
2019-03-10T22:50:57.030Z,99.99
2019-03-10T22:51:57.073Z,99.99
2019-03-10T22:52:57.027Z,99.99
2019-03-10T22:53:57.041Z,99.99
2019-03-10T22:54:57.021Z,99.99
2019-03-10T22:55:56.991Z,99.99
2019-03-10T22:56:56.987Z,99.93
2019-03-10T22:57:56.957Z,99.88
2019-03-10T22:58:56.956Z,99.99
2019-03-10T22:59:56.984Z,99.67
2019-03-10T23:00:56.953Z,99.99
2019-03-10T23:01:56.917Z,99.99
2019-03-10T23:02:56.945Z,99.99
2019-03-10T23:03:56.960Z,99.99
2019-03-10T23:04:56.891Z,99.99
2019-03-10T23:05:57.031Z,99.99
2019-03-10T23:06:56.876Z,99.99
2019-03-10T23:07:56.907Z,99.62
2019-03-10T23:08:56.869Z,99.82
2019-03-10T23:09:56.856Z,99.99
2019-03-10T23:10:56.836Z,99.99
2019-03-10T23:11:56.821Z,99.99
2019-03-10T23:12:56.799Z,99.99
2019-03-10T23:13:56.829Z,99.99
2019-03-10T23:14:56.776Z,99.99
2019-03-10T23:15:56.768Z,99.99
2019-03-10T23:16:56.791Z,99.99
2019-03-10T23:17:56.747Z,99.67
2019-03-10T23:18:56.738Z,99.99
2019-03-10T23:19:56.743Z,99.77
2019-03-10T23:20:56.744Z,99.99
2019-03-10T23:21:56.704Z,99.99
2019-03-10T23:22:56.703Z,99.99
2019-03-10T23:23:56.695Z,99.99
2019-03-10T23:24:56.697Z,99.99
2019-03-10T23:25:56.691Z,99.99
2019-03-10T23:26:56.690Z,99.99
2019-03-10T23:27:56.645Z,99.57
2019-03-10T23:28:56.630Z,99.77
2019-03-10T23:29:56.622Z,99.57
2019-03-10T23:30:56.616Z,99.26
2019-03-10T23:31:56.642Z,99.26
2019-03-10T23:32:56.616Z,99.77
2019-03-10T23:33:56.617Z,99.67
2019-03-10T23:34:56.579Z,99.26
2019-03-10T23:35:56.549Z,99.36
2019-03-10T23:36:56.545Z,99.32
2019-03-10T23:37:56.571Z,99.52
2019-03-10T23:38:56.532Z,99.26
2019-03-10T23:39:56.506Z,99.11
2019-03-10T23:40:56.562Z,98.90
2019-03-10T23:41:56.514Z,99.01
2019-03-10T23:42:56.516Z,98.94
2019-03-10T23:43:56.466Z,98.74
2019-03-10T23:44:56.460Z,98.84
2019-03-10T23:45:56.492Z,99.05
2019-03-10T23:46:56.444Z,98.63
2019-03-10T23:47:56.422Z,98.38
2019-03-10T23:48:56.419Z,98.69
2019-03-10T23:49:56.406Z,98.69
2019-03-10T23:50:56.428Z,98.38
2019-03-10T23:51:56.399Z,98.32
2019-03-10T23:52:56.416Z,98.63
2019-03-10T23:53:56.370Z,99.01
2019-03-10T23:54:56.375Z,99.05
2019-03-10T23:55:56.335Z,98.43
2019-03-10T23:56:56.342Z,99.05
2019-03-10T23:57:56.334Z,97.70
2019-03-10T23:58:56.380Z,97.65
2019-03-10T23:59:56.336Z,98.17
